Time;durP1;ratioP1;P1;durP2;ratioP2;P2;SDS_P1;SDS_P2;PMS_P1;PMS_P2;Temp;Humidity;BMP_temperature;BMP_pressure;BME280_temperature;BME280_humidity;BME280_pressure;Samples;Min_cycle;Max_cycle;Signal;HPM_P1;HPM_P2
2022/04/11 00:02:01;;;;;;;15.93;8.63;;;;;;;9.24;48.99;101862.53;5073035;28;20028;-59
2022/04/11 00:04:30;;;;;;;19.27;9.13;;;;;;;9.26;48.46;101858.25;5073130;28;20107;-60
2022/04/11 00:06:55;;;;;;;16.17;8.95;;;;;;;9.27;48.68;101853.84;5073301;28;20013;-59
2022/04/11 00:09:20;;;;;;;16.38;8.23;;;;;;;9.26;48.58;101854.72;5072994;28;20107;-59
2022/04/11 00:11:49;;;;;;;15.07;8.07;;;;;;;9.17;49.42;101850.03;5073166;28;20064;-58
2022/04/11 00:14:14;;;;;;;12.50;7.78;;;;;;;9.08;49.67;101849.75;5073140;28;20032;-59
2022/04/11 00:16:40;;;;;;;12.23;7.45;;;;;;;9.05;49.13;101848.72;5072922;28;20024;-59
2022/04/11 00:19:05;;;;;;;11.30;7.25;;;;;;;9.00;49.59;101840.69;5073024;28;20032;-59
2022/04/11 00:21:31;;;;;;;12.82;7.15;;;;;;;8.98;49.74;101844.97;5073275;28;20025;-59
2022/04/11 00:23:56;;;;;;;12.95;7.03;;;;;;;8.97;49.75;101844.09;5073144;28;20385;-59
2022/04/11 00:26:22;;;;;;;12.15;6.90;;;;;;;8.99;49.78;101844.13;5073015;28;20028;-59
2022/04/11 00:28:47;;;;;;;13.25;7.45;;;;;;;8.98;49.20;101839.72;5072849;28;20024;-60
2022/04/11 00:31:12;;;;;;;13.70;7.20;;;;;;;9.00;50.29;101840.69;5073309;28;20154;-59
2022/04/11 00:33:38;;;;;;;13.25;6.82;;;;;;;9.00;49.19;101838.03;5073059;28;20052;-60
2022/04/11 00:36:03;;;;;;;12.00;7.07;;;;;;;9.00;49.13;101828.38;5072921;28;20078;-59
2022/04/11 00:38:29;;;;;;;11.80;7.20;;;;;;;8.96;49.83;101822.97;5072905;28;20056;-60
2022/04/11 00:40:54;;;;;;;13.82;7.15;;;;;;;8.97;49.85;101823.00;5072893;28;20437;-59
2022/04/11 00:43:41;;;;;;;11.93;6.93;;;;;;;9.03;48.90;101819.66;5072884;28;20037;-59
2022/04/11 00:46:08;;;;;;;14.23;6.93;;;;;;;9.03;49.95;101825.81;5072787;28;20040;-58
2022/04/11 00:48:35;;;;;;;11.73;7.65;;;;;;;8.99;49.81;101812.50;5072722;28;20087;-59
2022/04/11 00:51:06;;;;;;;9.48;7.40;;;;;;;9.03;49.25;101810.00;5072836;28;20081;-60
2022/04/11 00:53:32;;;;;;;12.95;7.45;;;;;;;8.95;48.99;101813.25;5072676;28;20078;-59
2022/04/11 00:55:58;;;;;;;12.35;7.55;;;;;;;8.94;49.00;101808.81;5074956;28;20101;-58
2022/04/11 00:58:24;;;;;;;11.77;6.88;;;;;;;8.94;49.21;101811.47;5076406;28;20036;-60
2022/04/11 01:00:51;;;;;;;10.77;6.78;;;;;;;8.91;49.09;101806.09;5076467;28;20028;-60
2022/04/11 01:03:17;;;;;;;12.70;7.45;;;;;;;8.86;48.89;101805.94;5076456;28;20527;-59
2022/04/11 01:05:42;;;;;;;12.65;7.70;;;;;;;8.87;49.06;101806.84;5076452;28;20035;-60
2022/04/11 01:08:10;;;;;;;12.15;7.63;;;;;;;8.82;49.33;101808.41;5076396;28;20024;-59
2022/04/11 01:10:35;;;;;;;12.65;8.25;;;;;;;8.82;49.80;101800.50;5076588;28;20098;-58
2022/04/11 01:13:02;;;;;;;11.70;7.00;;;;;;;8.86;49.91;101797.13;5076249;28;20466;-58
2022/04/11 01:15:27;;;;;;;11.98;7.53;;;;;;;8.87;49.54;101798.94;5076152;28;20037;-58
2022/04/11 01:17:53;;;;;;;10.50;7.72;;;;;;;8.86;49.22;101798.03;5076166;28;20033;-59
2022/04/11 01:20:22;;;;;;;9.68;7.55;;;;;;;8.81;49.05;101789.06;5076136;28;20096;-59
2022/04/11 01:22:48;;;;;;;11.35;7.63;;;;;;;8.82;49.84;101800.50;5075986;28;20366;-58
2022/04/11 01:25:14;;;;;;;12.77;7.07;;;;;;;8.77;50.08;101788.06;5076093;28;20032;-59
2022/04/11 01:27:41;;;;;;;14.05;7.68;;;;;;;8.72;49.93;101791.41;5076046;28;20020;-58
2022/04/11 01:30:08;;;;;;;9.25;7.20;;;;;;;8.71;49.96;101795.78;5075992;28;20146;-59
2022/04/11 01:32:35;;;;;;;10.57;7.50;;;;;;;8.70;49.29;101791.38;5075788;28;20508;-60
2022/04/11 01:35:01;;;;;;;11.90;7.28;;;;;;;8.70;49.35;101796.63;5075993;28;20032;-58
2022/04/11 01:37:27;;;;;;;10.70;7.38;;;;;;;8.72;49.65;101796.69;5075871;28;20500;-60
2022/04/11 01:39:52;;;;;;;12.77;7.07;;;;;;;8.71;50.03;101792.25;5075877;28;20024;-59
2022/04/11 01:42:18;;;;;;;11.43;7.25;;;;;;;8.74;49.68;101792.38;5075790;28;20025;-58
2022/04/11 01:44:43;;;;;;;11.05;7.20;;;;;;;8.72;49.25;101786.13;5075742;28;20024;-58
2022/04/11 01:47:08;;;;;;;9.43;6.95;;;;;;;8.74;49.91;101790.63;5075493;28;20060;-59
2022/04/11 01:49:34;;;;;;;11.65;7.00;;;;;;;8.74;50.04;101795.91;5075699;28;20032;-58
2022/04/11 01:51:59;;;;;;;11.80;7.53;;;;;;;8.70;50.40;101793.13;5075535;28;20029;-59
2022/04/11 01:54:24;;;;;;;10.10;7.18;;;;;;;8.68;50.27;101787.78;5075415;28;20031;-59
2022/04/11 01:56:50;;;;;;;10.02;7.70;;;;;;;8.65;50.53;101786.75;5075480;28;20031;-58
2022/04/11 01:59:16;;;;;;;10.07;7.30;;;;;;;8.61;50.64;101798.97;5075306;28;20174;-60
2022/04/11 02:01:43;;;;;;;13.38;7.88;;;;;;;8.59;50.37;101797.13;5075287;28;20070;-59
2022/04/11 02:04:08;;;;;;;12.27;7.20;;;;;;;8.56;50.67;101784.72;5075550;28;20039;-59
2022/04/11 02:06:33;;;;;;;10.25;7.70;;;;;;;8.57;50.85;101783.00;5074271;28;20028;-59
2022/04/11 02:08:59;;;;;;;12.30;7.75;;;;;;;8.52;51.43;101788.09;5075129;28;20032;-59
2022/04/11 02:11:24;;;;;;;10.55;7.40;;;;;;;8.41;51.19;101786.84;5075345;28;20031;-59
2022/04/11 02:13:49;;;;;;;10.15;7.47;;;;;;;8.44;51.06;101787.84;5075723;28;20032;-58
2022/04/11 02:16:14;;;;;;;12.32;7.22;;;;;;;8.44;50.39;101785.22;5075749;28;20028;-58
2022/04/11 02:18:40;;;;;;;9.48;7.57;;;;;;;8.44;51.41;101784.31;5075191;28;20108;-59
2022/04/11 02:21:05;;;;;;;11.57;7.50;;;;;;;8.40;51.24;101787.69;5075165;28;20029;-58
2022/04/11 02:23:30;;;;;;;10.98;7.65;;;;;;;8.38;51.16;101785.00;5075063;28;20024;-59
2022/04/11 02:25:56;;;;;;;10.68;7.60;;;;;;;8.39;50.82;101781.50;5075014;28;20036;-58
2022/04/11 02:28:21;;;;;;;8.98;7.18;;;;;;;8.41;50.53;101781.56;5075116;28;20465;-58
2022/04/11 02:30:47;;;;;;;10.55;7.40;;;;;;;8.37;50.71;101780.56;5074928;28;20028;-58
2022/04/11 02:33:12;;;;;;;9.38;7.60;;;;;;;8.35;51.17;101790.13;5074644;28;20104;-58
2022/04/11 02:35:38;;;;;;;10.50;7.28;;;;;;;8.37;51.06;101795.47;5074737;28;20108;-59
2022/04/11 02:38:03;;;;;;;11.10;7.45;;;;;;;8.36;51.26;101791.91;5074700;28;20047;-58
2022/04/11 02:40:29;;;;;;;10.20;7.45;;;;;;;8.32;51.46;101790.03;5074756;28;20170;-58
2022/04/11 02:42:54;;;;;;;13.23;7.68;;;;;;;8.33;52.01;101781.28;5074737;28;20056;-58
2022/04/11 02:45:19;;;;;;;9.65;7.22;;;;;;;8.34;51.69;101785.69;5074589;28;20032;-59
2022/04/11 02:47:45;;;;;;;11.05;7.45;;;;;;;8.32;51.76;101782.13;5074350;28;20466;-58
2022/04/11 02:50:10;;;;;;;10.60;7.60;;;;;;;8.30;51.79;101781.16;5074217;28;20036;-60
2022/04/11 02:52:36;;;;;;;12.32;7.55;;;;;;;8.27;51.24;101779.31;5074483;28;20182;-58
2022/04/11 02:55:02;;;;;;;11.30;8.00;;;;;;;8.24;51.74;101775.69;5074276;28;20033;-58
2022/04/11 02:57:29;;;;;;;11.80;7.10;;;;;;;8.25;52.05;101781.00;5074406;28;20073;-59
2022/04/11 02:59:55;;;;;;;9.68;7.15;;;;;;;8.22;51.44;101782.63;5074096;28;20049;-59
2022/04/11 03:02:20;;;;;;;10.82;7.43;;;;;;;8.19;51.96;101787.81;5074246;28;20033;-58
2022/04/11 03:04:46;;;;;;;13.90;7.70;;;;;;;8.17;51.95;101777.19;5074141;28;20362;-59
2022/04/11 03:07:12;;;;;;;11.02;7.97;;;;;;;8.10;51.50;101771.69;5074231;28;20017;-58
2022/04/11 03:09:37;;;;;;;9.88;7.60;;;;;;;8.03;52.18;101770.56;5074041;28;20050;-59
2022/04/11 03:12:03;;;;;;;10.80;7.68;;;;;;;7.99;53.38;101766.91;5074057;28;20047;-59
2022/04/11 03:14:29;;;;;;;11.23;7.65;;;;;;;7.94;52.70;101771.13;5074072;28;20120;-59
2022/04/11 03:16:54;;;;;;;12.25;7.40;;;;;;;7.89;53.03;101764.81;5073967;28;20456;-59
2022/04/11 03:19:20;;;;;;;10.00;7.50;;;;;;;7.87;52.79;101762.94;5073506;28;20024;-59
2022/04/11 03:21:45;;;;;;;10.75;7.40;;;;;;;7.83;52.90;101772.44;5073806;28;21230;-59
2022/04/11 03:24:11;;;;;;;10.55;7.20;;;;;;;7.80;53.08;101764.47;5073872;28;20028;-59
2022/04/11 03:26:36;;;;;;;9.82;7.40;;;;;;;7.75;52.48;101763.38;5073902;28;20465;-58
2022/04/11 03:29:01;;;;;;;11.90;7.28;;;;;;;7.71;52.75;101762.41;5073726;28;20037;-59
2022/04/11 03:31:27;;;;;;;12.13;7.38;;;;;;;7.67;52.68;101768.38;5073636;28;20028;-58
2022/04/11 03:33:52;;;;;;;10.02;7.15;;;;;;;7.61;53.00;101772.50;5073588;28;20027;-58
2022/04/11 03:36:18;;;;;;;10.65;7.28;;;;;;;7.43;53.48;101768.34;5073437;28;20058;-59
2022/04/11 03:38:44;;;;;;;9.63;7.60;;;;;;;7.27;54.18;101765.94;5073732;28;20056;-59
2022/04/11 03:41:09;;;;;;;13.02;7.80;;;;;;;7.12;55.02;101770.63;5073463;28;20098;-58
2022/04/11 03:43:34;;;;;;;9.50;7.38;;;;;;;7.07;54.10;101769.56;5073541;28;20024;-59
2022/04/11 03:46:00;;;;;;;11.88;7.15;;;;;;;7.05;54.47;101777.34;5073342;28;20104;-58
2022/04/11 03:48:25;;;;;;;9.77;7.13;;;;;;;7.00;54.64;101771.91;5073275;28;20107;-59
2022/04/11 03:50:51;;;;;;;9.35;7.05;;;;;;;7.06;54.26;101779.13;5073328;28;20028;-58
2022/04/11 03:53:16;;;;;;;10.52;6.95;;;;;;;7.12;53.84;101768.88;5073315;28;20036;-59
2022/04/11 03:55:42;;;;;;;12.23;7.60;;;;;;;7.19;53.91;101776.16;5073537;28;20477;-59
2022/04/11 03:58:07;;;;;;;11.73;7.55;;;;;;;7.24;54.36;101774.63;5073257;28;20117;-59
2022/04/11 04:00:32;;;;;;;10.18;7.15;;;;;;;7.25;53.78;101773.78;5072934;28;20048;-58
2022/04/11 04:03:12;;;;;;;10.82;7.47;;;;;;;7.25;53.73;101776.41;5073273;28;20042;-59
2022/04/11 04:05:45;;;;;;;10.43;7.47;;;;;;;7.25;53.96;101768.53;5073309;28;20111;-58
2022/04/11 04:08:11;;;;;;;9.43;7.25;;;;;;;7.23;54.17;101774.56;5073169;28;20024;-59
2022/04/11 04:10:37;;;;;;;14.30;8.02;;;;;;;7.17;53.96;101772.59;5073112;28;20488;-58
2022/04/11 04:13:03;;;;;;;9.48;6.95;;;;;;;7.19;54.51;101776.16;5073191;28;20021;-60
2022/04/11 04:15:29;;;;;;;10.57;7.30;;;;;;;7.17;54.39;101769.97;5073105;28;20497;-59
2022/04/11 04:17:55;;;;;;;10.43;7.38;;;;;;;7.12;54.43;101765.38;5073059;28;20033;-58
2022/04/11 04:20:21;;;;;;;11.52;7.30;;;;;;;7.13;54.20;101761.91;5072832;28;20389;-59
2022/04/11 04:22:46;;;;;;;11.40;7.53;;;;;;;7.19;54.32;101767.38;5073039;28;20033;-58
2022/04/11 04:25:12;;;;;;;10.60;7.22;;;;;;;7.17;54.08;101756.81;5073188;28;20377;-59
2022/04/11 04:27:37;;;;;;;9.65;6.97;;;;;;;7.21;54.24;101753.47;5073536;28;20060;-58
2022/04/11 04:30:06;;;;;;;10.95;7.55;;;;;;;7.17;54.84;101758.56;5073886;28;20025;-57
2022/04/11 04:32:31;;;;;;;11.38;7.13;;;;;;;7.12;54.73;101765.38;5077430;28;20057;-59
2022/04/11 04:34:57;;;;;;;10.23;7.43;;;;;;;7.05;54.43;101758.97;5076806;28;20032;-59
2022/04/11 04:37:22;;;;;;;11.07;7.00;;;;;;;7.03;54.20;101760.66;5077060;28;20104;-59
2022/04/11 04:39:47;;;;;;;15.43;6.93;;;;;;;7.00;54.86;101752.63;5077046;28;20021;-58
2022/04/11 04:42:19;;;;;;;9.68;6.80;;;;;;;6.97;55.38;101756.03;5076951;28;20025;-60
2022/04/11 04:44:45;;;;;;;10.13;6.72;;;;;;;6.95;55.36;101751.56;5077072;28;20024;-59
2022/04/11 04:47:10;;;;;;;11.48;6.95;;;;;;;6.94;54.74;101755.91;5076836;28;20031;-57
2022/04/11 04:49:36;;;;;;;11.00;6.95;;;;;;;6.91;54.97;101757.53;5076729;28;20620;-58
2022/04/11 04:52:02;;;;;;;11.68;7.13;;;;;;;6.88;55.21;101752.13;5076498;28;20392;-58
2022/04/11 04:54:27;;;;;;;10.95;7.35;;;;;;;6.85;55.08;101750.31;5076032;28;20029;-58
2022/04/11 04:56:53;;;;;;;11.25;6.85;;;;;;;6.83;55.04;101751.94;5076033;28;20031;-58
2022/04/11 04:59:18;;;;;;;17.15;9.82;;;;;;;6.78;55.24;101751.78;5075640;28;20040;-59
2022/04/11 05:01:43;;;;;;;13.63;7.95;;;;;;;6.77;55.52;101749.09;5075884;28;20037;-58
2022/04/11 05:04:09;;;;;;;10.00;7.25;;;;;;;6.77;55.68;101749.97;5075868;28;20030;-60
2022/04/11 05:06:34;;;;;;;12.70;7.38;;;;;;;6.75;54.87;101751.63;5075462;28;20021;-59
2022/04/11 05:09:00;;;;;;;13.13;7.80;;;;;;;6.75;55.18;101758.63;5075904;28;20032;-58
2022/04/11 05:11:25;;;;;;;10.93;7.57;;;;;;;6.76;55.59;101737.66;5075573;28;20086;-59
2022/04/11 05:13:51;;;;;;;10.90;7.47;;;;;;;6.78;55.23;101743.88;5075954;28;20028;-59
2022/04/11 05:16:18;;;;;;;9.82;7.32;;;;;;;6.84;55.19;101745.84;5075524;28;20056;-59
2022/04/11 05:18:44;;;;;;;12.38;7.65;;;;;;;6.84;55.13;101743.22;5075677;28;20033;-58
2022/04/11 05:21:10;;;;;;;11.77;7.88;;;;;;;6.83;55.00;101743.19;5075317;28;20112;-58
2022/04/11 05:23:35;;;;;;;14.02;7.70;;;;;;;6.89;55.34;101744.31;5075380;28;20081;-59
2022/04/11 05:26:00;;;;;;;11.75;7.45;;;;;;;6.91;54.64;101745.28;5075665;28;20025;-59
2022/04/11 05:28:26;;;;;;;11.52;7.70;;;;;;;6.96;55.25;101741.09;5075388;28;20549;-58
2022/04/11 05:30:51;;;;;;;16.45;8.35;;;;;;;7.06;54.54;101741.47;5075484;28;20043;-58
2022/04/11 05:33:16;;;;;;;11.98;7.38;;;;;;;7.16;54.36;101735.75;5074938;28;20047;-59
2022/04/11 05:35:42;;;;;;;10.63;7.47;;;;;;;7.24;54.91;101743.09;5075296;28;20020;-59
2022/04/11 05:38:07;;;;;;;10.27;7.72;;;;;;;7.34;54.60;101738.19;5074775;28;20028;-58
2022/04/11 05:40:33;;;;;;;11.07;8.00;;;;;;;7.42;54.09;101742.88;5074933;28;20059;-58
2022/04/11 05:42:58;;;;;;;11.35;7.80;;;;;;;7.50;53.55;101743.19;5057161;28;20052;-59
2022/04/11 05:45:24;;;;;;;12.75;7.80;;;;;;;7.62;53.13;101747.97;5075240;28;20102;-59
2022/04/11 05:47:49;;;;;;;15.13;9.90;;;;;;;7.73;53.27;101746.66;5075374;28;20427;-57
2022/04/11 05:50:14;;;;;;;11.10;8.18;;;;;;;7.81;52.40;101739.94;5076132;28;20036;-58
2022/04/11 05:52:40;;;;;;;14.27;7.78;;;;;;;7.90;53.03;101744.63;5075260;28;20060;-59
2022/04/11 05:55:05;;;;;;;12.32;7.75;;;;;;;7.98;52.26;101735.28;5074907;28;20424;-58
2022/04/11 05:57:30;;;;;;;11.15;7.15;;;;;;;8.04;52.83;101746.91;5075089;28;20107;-59
2022/04/11 05:59:56;;;;;;;10.80;7.63;;;;;;;8.10;52.10;101740.09;5074281;28;20110;-59
2022/04/11 06:02:21;;;;;;;10.77;7.18;;;;;;;8.21;51.46;101741.34;5074966;28;20036;-58
2022/04/11 06:04:46;;;;;;;12.10;7.05;;;;;;;8.35;51.25;101747.06;5074685;28;20064;-59
2022/04/11 06:07:12;;;;;;;13.10;7.15;;;;;;;8.47;52.11;101737.00;5074832;28;20028;-58
2022/04/11 06:09:37;;;;;;;11.57;7.30;;;;;;;8.57;52.21;101736.47;5074414;28;20020;-58
2022/04/11 06:12:03;;;;;;;9.73;6.72;;;;;;;8.69;51.22;101731.63;5074462;28;20028;-59
2022/04/11 06:14:28;;;;;;;10.32;6.70;;;;;;;8.81;50.75;101733.72;5074857;28;20055;-59
2022/04/11 06:16:53;;;;;;;9.63;6.93;;;;;;;8.93;51.29;101730.59;5074444;28;20086;-59
2022/04/11 06:19:19;;;;;;;11.18;6.82;;;;;;;9.02;50.66;101733.53;5074472;28;20037;-58
2022/04/11 06:21:44;;;;;;;9.75;7.38;;;;;;;9.05;51.24;101740.66;5074281;28;20473;-58
2022/04/11 06:24:10;;;;;;;13.88;7.25;;;;;;;9.02;50.51;101734.41;5074581;28;20074;-59
2022/04/11 06:26:35;;;;;;;11.07;7.05;;;;;;;9.09;50.73;101740.78;5074239;28;20093;-60
2022/04/11 06:29:01;;;;;;;10.15;7.00;;;;;;;9.15;50.95;101745.34;5074538;28;20420;-59
2022/04/11 06:31:26;;;;;;;10.80;6.25;;;;;;;9.26;50.84;101743.94;5074338;28;20029;-59
2022/04/11 06:33:51;;;;;;;11.63;6.70;;;;;;;9.42;50.72;101738.28;5074065;28;20046;-58
2022/04/11 06:36:17;;;;;;;12.50;6.57;;;;;;;9.54;50.70;101743.00;5074044;28;20543;-57
2022/04/11 06:38:42;;;;;;;12.45;6.68;;;;;;;9.47;50.67;101730.50;5074047;28;20048;-59
2022/04/11 06:41:07;;;;;;;13.50;6.65;;;;;;;9.39;50.69;101734.66;5073800;28;20074;-59
2022/04/11 06:43:33;;;;;;;16.45;7.22;;;;;;;9.51;50.42;101732.38;5074007;28;20052;-59
2022/04/11 06:45:58;;;;;;;9.38;6.50;;;;;;;9.63;50.24;101735.34;5074047;28;20390;-58
2022/04/11 06:48:24;;;;;;;10.48;7.10;;;;;;;9.85;50.18;101736.88;5073582;28;20078;-58
2022/04/11 06:50:50;;;;;;;8.60;6.65;;;;;;;10.06;50.29;101731.25;5074052;28;20024;-58
2022/04/11 06:53:16;;;;;;;9.60;5.93;;;;;;;10.21;49.58;101744.91;5072978;28;20032;-59
2022/04/11 06:55:47;;;;;;;8.85;6.13;;;;;;;10.23;49.07;101751.09;5073792;28;20023;-59
2022/04/11 06:58:16;;;;;;;8.90;6.00;;;;;;;10.39;48.38;101755.09;5073601;28;20032;-58
2022/04/11 07:00:42;;;;;;;10.38;6.38;;;;;;;10.47;48.12;101758.81;5073646;28;20037;-58
2022/04/11 07:03:08;;;;;;;9.88;6.15;;;;;;;10.59;48.43;101752.06;5073472;28;20049;-59
2022/04/11 07:05:33;;;;;;;11.07;6.20;;;;;;;10.85;48.17;101752.72;5073400;28;20091;-58
2022/04/11 07:07:58;;;;;;;12.35;5.80;;;;;;;11.01;47.35;101757.50;5073735;28;20032;-59
2022/04/11 07:10:24;;;;;;;9.88;6.03;;;;;;;11.12;46.85;101755.09;5073125;28;20078;-59
2022/04/11 07:12:49;;;;;;;8.70;5.57;;;;;;;11.15;46.72;101748.13;5073360;28;20708;-59
2022/04/11 07:15:14;;;;;;;10.25;6.03;;;;;;;11.31;46.44;101749.38;5073231;28;20025;-58
2022/04/11 07:17:40;;;;;;;13.45;5.50;;;;;;;11.49;46.17;101738.31;5073225;28;20029;-58
2022/04/11 07:20:06;;;;;;;10.60;5.78;;;;;;;11.58;45.22;101740.25;5072962;28;20029;-60
2022/04/11 07:22:32;;;;;;;7.45;5.03;;;;;;;11.63;46.01;101728.00;5073338;28;20021;-58
2022/04/11 07:24:57;;;;;;;12.93;5.38;;;;;;;11.67;46.18;101735.13;5073319;28;20033;-58
2022/04/11 07:27:22;;;;;;;8.27;5.28;;;;;;;11.71;45.46;101726.41;5073025;28;20028;-59
2022/04/11 07:29:48;;;;;;;11.68;6.15;;;;;;;11.84;46.33;101723.16;5073231;28;20485;-59
2022/04/11 07:32:13;;;;;;;8.38;5.43;;;;;;;12.18;46.46;101722.03;5073779;28;20488;-59
2022/04/11 07:34:40;;;;;;;12.68;5.75;;;;;;;12.41;46.50;101725.09;5073660;28;20027;-58
2022/04/11 07:37:07;;;;;;;7.35;5.03;;;;;;;12.63;45.24;101720.16;5074111;28;20034;-58
2022/04/11 07:39:32;;;;;;;9.73;5.32;;;;;;;12.95;43.75;101723.31;5073576;28;20113;-58
2022/04/11 07:41:58;;;;;;;9.30;5.30;;;;;;;13.12;43.01;101705.00;5072681;28;20040;-59
2022/04/11 07:44:23;;;;;;;9.73;5.40;;;;;;;13.42;42.74;101716.06;5072950;28;20112;-59
2022/04/11 07:46:48;;;;;;;9.85;5.72;;;;;;;13.60;42.80;101712.75;5072792;28;20025;-59
2022/04/11 07:49:14;;;;;;;8.05;5.13;;;;;;;13.70;42.42;101712.00;5073027;28;20035;-59
2022/04/11 07:51:39;;;;;;;8.93;4.97;;;;;;;13.65;41.93;101707.47;5072792;28;20024;-57
2022/04/11 07:54:05;;;;;;;9.30;5.25;;;;;;;13.64;41.52;101703.94;5072658;28;20016;-59
2022/04/11 07:56:31;;;;;;;9.57;5.20;;;;;;;13.76;42.26;101709.41;5072656;28;20093;-59
2022/04/11 07:58:56;;;;;;;10.75;5.00;;;;;;;13.94;42.25;101705.16;5072439;28;20037;-59
2022/04/11 08:01:22;;;;;;;12.48;5.20;;;;;;;14.15;41.32;101701.84;5072440;28;20064;-59
2022/04/11 08:03:48;;;;;;;8.02;4.45;;;;;;;14.31;40.12;101708.19;5072358;28;20028;-59
2022/04/11 08:06:14;;;;;;;9.70;4.68;;;;;;;14.40;40.01;101690.53;5072853;28;20017;-59
2022/04/11 08:08:46;;;;;;;7.40;4.30;;;;;;;14.37;38.33;101697.59;5072337;28;20442;-59
2022/04/11 08:11:12;;;;;;;;;;;;;;;14.62;40.71;101696.06;5072940;28;20032;-59
2022/04/11 08:13:38;;;;;;;8.90;4.60;;;;;;;14.77;38.53;101683.78;5072285;28;19908;-60
2022/04/11 08:16:04;;;;;;;11.02;4.63;;;;;;;14.94;37.47;101683.88;5072421;28;20044;-59
2022/04/11 08:18:29;;;;;;;9.13;4.65;;;;;;;14.84;36.61;101683.81;5072292;28;20104;-59
2022/04/11 08:20:55;;;;;;;8.20;4.32;;;;;;;14.69;37.24;101677.53;5072278;28;20028;-59
2022/04/11 08:23:20;;;;;;;7.57;4.10;;;;;;;14.71;37.25;101672.19;5072347;28;20025;-59
2022/04/11 08:25:49;;;;;;;10.10;4.47;;;;;;;14.71;37.78;101675.75;5072336;28;20032;-58
2022/04/11 08:28:15;;;;;;;10.57;3.90;;;;;;;14.81;37.85;101676.69;5071998;28;20401;-60
2022/04/11 08:30:42;;;;;;;8.13;4.30;;;;;;;14.63;37.61;101674.78;5072301;28;20040;-59
2022/04/11 08:33:07;;;;;;;6.80;4.28;;;;;;;14.66;38.40;101679.25;5072346;28;20365;-59
2022/04/11 08:35:33;;;;;;;8.27;4.25;;;;;;;14.68;39.13;101669.50;5072160;28;20100;-59
2022/04/11 08:37:58;;;;;;;7.50;4.28;;;;;;;15.00;39.25;101665.28;5072259;28;20029;-59
2022/04/11 08:40:24;;;;;;;11.30;4.28;;;;;;;15.18;38.30;101671.59;5072444;28;20107;-59
2022/04/11 08:42:51;;;;;;;8.82;4.50;;;;;;;15.38;37.13;101663.72;5072040;28;20132;-60
2022/04/11 08:45:21;;;;;;;7.80;4.18;;;;;;;15.59;37.28;101665.53;5072143;28;20029;-59
2022/04/11 08:47:48;;;;;;;10.38;4.22;;;;;;;15.64;35.86;101664.72;5071976;28;20077;-60
2022/04/11 08:50:13;;;;;;;6.40;4.00;;;;;;;15.68;35.09;101661.19;5072024;28;20024;-58
2022/04/11 08:52:40;;;;;;;9.45;4.32;;;;;;;15.92;35.30;101663.00;5071969;28;20021;-59
2022/04/11 08:55:06;;;;;;;7.95;4.18;;;;;;;16.06;37.24;101662.13;5072055;28;20028;-60
2022/04/11 08:57:31;;;;;;;9.35;4.20;;;;;;;16.12;34.38;101657.69;5071738;28;20119;-58
2022/04/11 09:00:12;;;;;;;8.10;4.43;;;;;;;16.31;35.86;101665.69;5072048;28;20121;-59
2022/04/11 09:02:39;;;;;;;9.95;4.50;;;;;;;16.38;34.63;101660.38;5071894;28;20048;-60
2022/04/11 09:05:04;;;;;;;8.48;4.15;;;;;;;16.48;35.30;101655.91;5071983;28;20489;-58
2022/04/11 09:07:48;;;;;;;6.90;3.92;;;;;;;16.51;35.08;101662.13;5071973;28;20021;-59
2022/04/11 09:10:24;;;;;;;7.72;3.55;;;;;;;16.70;33.99;101667.44;5071647;28;20025;-58
2022/04/11 09:12:52;;;;;;;7.43;4.13;;;;;;;16.65;33.24;101669.25;5071838;28;20032;-59
2022/04/11 09:15:19;;;;;;;9.82;3.83;;;;;;;16.69;32.59;101663.91;5071900;28;20040;-59
2022/04/11 09:17:45;;;;;;;9.05;4.03;;;;;;;16.88;33.51;101663.91;5075174;28;20082;-59
2022/04/11 09:20:16;;;;;;;7.20;3.72;;;;;;;17.08;33.65;101655.84;5075559;28;20031;-59
2022/04/11 09:22:42;;;;;;;9.00;3.70;;;;;;;17.05;32.55;101658.53;5075300;28;20021;-59
2022/04/11 09:25:09;;;;;;;7.85;3.60;;;;;;;16.96;32.09;101646.09;5075611;28;20134;-59
2022/04/11 09:27:34;;;;;;;7.43;3.60;;;;;;;17.05;31.71;101648.75;5075636;28;20025;-58
2022/04/11 09:30:00;;;;;;;8.00;3.67;;;;;;;17.08;32.33;101642.50;5075829;28;20384;-59
2022/04/11 09:32:25;;;;;;;8.95;3.28;;;;;;;16.97;31.19;101637.19;5076216;28;20025;-59
2022/04/11 09:34:54;;;;;;;7.15;3.58;;;;;;;16.95;31.38;101636.28;5076638;28;20024;-58
2022/04/11 09:37:20;;;;;;;8.18;3.40;;;;;;;17.05;30.39;101613.16;5075305;28;20483;-58
2022/04/11 09:39:55;;;;;;;6.85;3.88;;;;;;;17.27;31.06;101625.50;5075247;28;20025;-60
2022/04/11 09:42:31;;;;;;;6.75;3.42;;;;;;;17.28;31.16;101624.59;5075336;28;20405;-59
2022/04/11 09:45:00;;;;;;;7.63;3.72;;;;;;;17.22;30.67;101613.97;5075579;28;20086;-59
2022/04/11 09:47:26;;;;;;;5.13;3.20;;;;;;;17.37;30.54;101611.19;5074923;28;20154;-59
2022/04/11 09:49:52;;;;;;;8.18;3.28;;;;;;;17.36;30.17;101621.91;5074977;28;20448;-59
2022/04/11 09:52:18;;;;;;;7.68;3.25;;;;;;;17.20;28.78;101618.41;5075066;28;20104;-61
2022/04/11 09:54:45;;;;;;;4.97;3.22;;;;;;;16.99;29.99;101620.25;5075033;28;20085;-59
2022/04/11 09:57:15;;;;;;;6.88;3.50;;;;;;;16.93;29.53;101608.72;5074788;28;20028;-60
2022/04/11 09:59:41;;;;;;;7.70;3.60;;;;;;;16.80;29.87;101607.00;5075078;28;20024;-59
2022/04/11 10:02:10;;;;;;;7.25;3.30;;;;;;;16.82;30.34;101614.09;5074660;28;20644;-59
2022/04/11 10:04:36;;;;;;;6.07;3.38;;;;;;;17.02;29.77;101601.56;5074814;28;20408;-60
2022/04/11 10:07:02;;;;;;;8.77;3.88;;;;;;;17.02;28.93;101595.34;5074812;28;20082;-58
2022/04/11 10:09:27;;;;;;;8.75;3.63;;;;;;;17.11;29.97;101597.09;5074487;28;20039;-59
2022/04/11 10:11:55;;;;;;;9.40;3.60;;;;;;;17.35;30.19;101596.97;5074639;28;20386;-60
2022/04/11 10:14:26;;;;;;;12.82;3.80;;;;;;;17.41;30.53;101601.41;5074564;28;20531;-59
2022/04/11 10:16:55;;;;;;;7.43;3.83;;;;;;;17.41;30.90;101588.91;5074382;28;20029;-59
2022/04/11 10:19:25;;;;;;;9.30;3.47;;;;;;;17.74;29.31;101593.22;5074435;28;20150;-60
2022/04/11 10:21:54;;;;;;;7.20;3.40;;;;;;;17.95;28.52;101586.81;5074543;28;20145;-60
2022/04/11 10:24:33;;;;;;;7.32;3.35;;;;;;;17.97;29.63;101590.34;5074388;28;20035;-59
2022/04/11 10:27:25;;;;;;;7.43;3.55;;;;;;;17.98;28.84;101581.41;5074057;28;20105;-60
2022/04/11 10:29:52;;;;;;;8.07;3.50;;;;;;;17.84;28.18;101582.44;5060935;28;20139;-61
2022/04/11 10:32:27;;;;;;;7.00;3.47;;;;;;;17.54;29.76;101573.69;5074083;28;20033;-59
2022/04/11 10:34:55;;;;;;;6.78;3.70;;;;;;;17.43;29.09;101591.56;5074164;28;20028;-59
2022/04/11 10:37:26;;;;;;;9.20;3.60;;;;;;;17.51;29.16;101579.06;5074367;28;20025;-59
2022/04/11 10:39:52;;;;;;;6.38;3.50;;;;;;;17.73;28.99;101577.16;5074006;28;20020;-58
2022/04/11 10:42:19;;;;;;;8.98;3.55;;;;;;;17.57;28.99;101579.03;5074088;28;20123;-58
2022/04/11 10:44:50;;;;;;;5.50;3.13;;;;;;;17.80;29.71;101560.19;5073819;28;20389;-59
2022/04/11 10:47:16;;;;;;;6.37;3.40;;;;;;;17.98;29.88;101573.41;5073904;28;20128;-58
2022/04/11 10:49:44;;;;;;;7.05;3.35;;;;;;;18.39;29.98;101560.56;5073812;28;20123;-59
2022/04/11 10:52:28;;;;;;;7.13;3.60;;;;;;;18.14;27.87;101566.16;5073708;28;20021;-58
2022/04/11 10:54:56;;;;;;;7.95;3.17;;;;;;;17.87;29.37;101553.91;5073812;28;20064;-59
2022/04/11 10:57:35;;;;;;;6.75;3.40;;;;;;;18.00;29.03;101541.31;5073626;28;20482;-60
2022/04/11 11:00:06;;;;;;;6.57;3.08;;;;;;;18.01;27.55;101551.09;5073863;28;20021;-59
2022/04/11 11:02:54;;;;;;;7.07;3.28;;;;;;;17.90;28.48;101551.22;5073204;28;20036;-60
2022/04/11 11:05:40;;;;;;;8.00;3.03;;;;;;;17.74;28.98;101542.41;5073729;28;20036;-59
2022/04/11 11:08:11;;;;;;;7.63;3.10;;;;;;;17.70;26.77;101545.09;5073773;28;20383;-59
2022/04/11 11:10:43;;;;;;;5.15;3.10;;;;;;;17.76;28.54;101535.25;5073368;28;20561;-58
2022/04/11 11:13:36;;;;;;;5.50;3.15;;;;;;;17.94;27.08;101530.66;5073607;28;20166;-59
2022/04/11 11:16:07;;;;;;;6.95;3.25;;;;;;;18.02;27.10;101518.09;5073459;28;20060;-60
2022/04/11 11:18:47;;;;;;;7.15;3.95;;;;;;;18.29;27.04;101516.97;5073279;28;20431;-59
2022/04/11 11:21:14;;;;;;;7.63;3.13;;;;;;;18.41;27.72;101514.13;5073169;28;20036;-59
2022/04/11 11:23:40;;;;;;;6.85;3.08;;;;;;;18.25;26.30;101509.88;5073273;28;20024;-59
2022/04/11 11:26:10;;;;;;;7.05;3.00;;;;;;;18.06;26.61;101505.59;5073223;28;20074;-60